Amaranth, Pennsylvania
Current Conditions -  °F | °C
As of 5:53 PM on Monday 20 Oct 2014 (Local Time) from KHGR Reporting Station
Overcast Overcast  
Wind Chill: 16°   Ceiling: 8000
Heat Index: 16°   Visibility: 10mi
Dew Point:   Wind: 3mph
Humidity: 46%   Direction: 140°SE
Pressure: 29.94"   Gusts: NA
Location:  39.7745°N, 78.2026°W
Report Text: KHGR 202153Z 14003KT 10SM OVC080 16/04 A2994 RMK AO2 SLP149 T01560039
Loading
Personal Weather Stations






























Interactive Weather Map
Tropical Storm Tracking
New forecast layout! Learn more

10-Day Weather Forecast

Advertisements
Track Severe Weather on mobile